createdAt,value
2023-04-01T00:00:55.404Z,99175.09
2023-04-01T00:03:24.821Z,99169.63
2023-04-01T00:05:53.661Z,99166.06
2023-04-01T00:08:22.052Z,99168.56
2023-04-01T00:10:50.303Z,99169.41
2023-04-01T00:13:18.478Z,99165.44
2023-04-01T00:15:48.064Z,99163.31
2023-04-01T00:18:17.081Z,99161.81
2023-04-01T00:20:47.226Z,99168.13
2023-04-01T00:23:16.717Z,99171.91
2023-04-01T00:25:46.326Z,99165.84
2023-04-01T00:28:14.734Z,99170.84
2023-04-01T00:30:43.024Z,99172.16
2023-04-01T00:33:12.878Z,99173.84
2023-04-01T00:35:41.648Z,99169.63
2023-04-01T00:38:09.797Z,99172.34
2023-04-01T00:40:40.268Z,99166.06
2023-04-01T00:43:14.234Z,99162.06
2023-04-01T00:45:44.786Z,99167.97
2023-04-01T00:48:19.217Z,99170.72
2023-04-01T00:50:53.152Z,99171.50
2023-04-01T00:53:22.555Z,99166.06
2023-04-01T00:55:56.127Z,99164.59
2023-04-01T00:58:25.792Z,99170.59
2023-04-01T01:00:54.563Z,99167.13
2023-04-01T01:03:24.066Z,99163.38
2023-04-01T01:06:07.600Z,99166.72
2023-04-01T01:08:51.861Z,99173.25
2023-04-01T01:11:43.300Z,99165.94
2023-04-01T01:14:26.994Z,99173.91
2023-04-01T01:17:01.079Z,99172.66
2023-04-01T01:19:51.538Z,99170.75
2023-04-01T01:22:49.329Z,99173.03
2023-04-01T01:25:28.524Z,99175.59
2023-04-01T01:28:08.337Z,99180.84
2023-04-01T01:30:48.113Z,99181.44
2023-04-01T01:33:33.886Z,99179.31
2023-04-01T01:36:07.383Z,99185.22
2023-04-01T01:38:37.191Z,99184.63
2023-04-01T01:41:09.131Z,99181.91
2023-04-01T01:43:41.736Z,99181.69
2023-04-01T01:46:15.730Z,99180.22
2023-04-01T01:48:46.848Z,99184.44
2023-04-01T01:51:16.958Z,99186.97
2023-04-01T01:53:44.882Z,99190.97
2023-04-01T01:56:15.040Z,99186.53
2023-04-01T01:58:50.843Z,99192.81
2023-04-01T02:01:24.667Z,99186.97
2023-04-01T02:03:54.985Z,99194.75
2023-04-01T02:06:28.038Z,99193.31
2023-04-01T02:08:59.161Z,99196.50
2023-04-01T02:11:32.340Z,99198.59
2023-04-01T02:14:04.907Z,99202.38
2023-04-01T02:16:37.530Z,99206.31
2023-04-01T02:19:09.231Z,99200.84
2023-04-01T02:21:40.108Z,99207.44
2023-04-01T02:24:12.129Z,99210.75
2023-04-01T02:26:41.145Z,99205.69
2023-04-01T02:29:11.282Z,99212.44
2023-04-01T02:31:40.353Z,99211.59
2023-04-01T02:34:08.631Z,99206.75
2023-04-01T02:36:39.030Z,99214.13
2023-04-01T02:39:07.943Z,99213.91
2023-04-01T02:41:41.749Z,99211.56
2023-04-01T02:44:10.342Z,99213.06
2023-04-01T02:46:39.260Z,99216.41
2023-04-01T02:49:07.692Z,99215.59
2023-04-01T02:51:36.356Z,99219.97
2023-04-01T02:54:06.084Z,99228.00
2023-04-01T02:56:34.249Z,99222.19
2023-04-01T02:59:02.175Z,99229.69
2023-04-01T03:01:30.268Z,99232.41
2023-04-01T03:03:58.793Z,99237.25
2023-04-01T03:06:27.067Z,99237.69
2023-04-01T03:08:55.565Z,99240.66
2023-04-01T03:11:27.227Z,99239.38
2023-04-01T03:13:55.510Z,99236.63
2023-04-01T03:16:23.616Z,99245.03
2023-04-01T03:18:53.725Z,99245.28
2023-04-01T03:21:24.195Z,99249.50
2023-04-01T03:23:52.727Z,99252.63
2023-04-01T03:26:20.904Z,99252.03
2023-04-01T03:28:50.383Z,99247.66
2023-04-01T03:31:19.054Z,99257.69
2023-04-01T03:33:53.455Z,99253.72
2023-04-01T03:36:21.941Z,99260.22
2023-04-01T03:38:50.321Z,99255.59
2023-04-01T03:41:25.343Z,99257.94
2023-04-01T03:43:55.624Z,99269.28
2023-04-01T03:46:23.866Z,99263.84
2023-04-01T03:48:52.037Z,99264.69
2023-04-01T03:51:21.112Z,99272.88
2023-04-01T03:53:49.307Z,99276.25
2023-04-01T03:56:18.797Z,99277.06
2023-04-01T03:58:46.971Z,99275.41
2023-04-01T04:01:18.408Z,99282.31
2023-04-01T04:03:47.805Z,99278.75
2023-04-01T04:06:16.582Z,99283.59
2023-04-01T04:08:45.324Z,99285.69
2023-04-01T04:11:15.691Z,99288.41
2023-04-01T04:13:45.085Z,99281.91
2023-04-01T04:16:13.714Z,99297.47
2023-04-01T04:18:48.462Z,99289.50
2023-04-01T04:21:17.498Z,99298.50
2023-04-01T04:23:46.191Z,99303.34
2023-04-01T04:26:17.671Z,99301.91
2023-04-01T04:28:51.735Z,99294.56
2023-04-01T04:31:22.051Z,99307.81
2023-04-01T04:33:53.503Z,99302.09
2023-04-01T04:36:22.989Z,99313.88
2023-04-01T04:38:52.572Z,99322.06
2023-04-01T04:41:22.916Z,99323.78
2023-04-01T04:43:53.934Z,99315.59
2023-04-01T04:46:22.507Z,99324.44
2023-04-01T04:48:56.426Z,99334.28
2023-04-01T04:51:24.980Z,99332.84
2023-04-01T04:53:53.750Z,99339.97
2023-04-01T04:56:29.586Z,99337.63
2023-04-01T04:59:09.110Z,99339.94
2023-04-01T05:01:50.247Z,99346.09
2023-04-01T05:04:20.309Z,99350.47
2023-04-01T05:06:48.392Z,99351.53
2023-04-01T05:09:19.202Z,99349.81
2023-04-01T05:11:47.233Z,99353.56
2023-04-01T05:14:16.352Z,99359.91
2023-04-01T05:16:50.404Z,99361.34
2023-04-01T05:19:20.219Z,99359.69
2023-04-01T05:21:48.522Z,99365.78
2023-04-01T05:24:17.850Z,99358.63
2023-04-01T05:26:46.534Z,99368.72
2023-04-01T05:29:14.651Z,99366.63
2023-04-01T05:31:44.310Z,99377.56
2023-04-01T05:34:12.433Z,99381.34
2023-04-01T05:36:42.658Z,99381.56
2023-04-01T05:39:11.049Z,99386.78
2023-04-01T05:41:41.378Z,99395.84
2023-04-01T05:44:09.464Z,99396.47
2023-04-01T05:46:43.799Z,99401.50
2023-04-01T05:49:21.553Z,99406.16
2023-04-01T05:51:52.602Z,99415.19
2023-04-01T05:54:21.864Z,99414.13
2023-04-01T05:56:50.932Z,99420.00
2023-04-01T05:59:20.427Z,99417.88
2023-04-01T06:01:48.332Z,99420.84
2023-04-01T06:04:19.329Z,99429.44
2023-04-01T06:06:48.204Z,99417.69
2023-04-01T06:09:20.536Z,99430.06
2023-04-01T06:12:18.690Z,99428.41
2023-04-01T06:15:00.175Z,99437.22
2023-04-01T06:17:41.468Z,99444.16
2023-04-01T06:20:17.579Z,99443.53
2023-04-01T06:23:01.343Z,99450.47
2023-04-01T06:25:52.878Z,99446.69
2023-04-01T06:29:00.050Z,99466.22
2023-04-01T06:31:45.190Z,99463.69
2023-04-01T06:34:29.824Z,99464.31
2023-04-01T06:37:21.809Z,99472.53
2023-04-01T06:40:11.921Z,99476.91
2023-04-01T06:42:55.659Z,99475.66
2023-04-01T06:45:49.042Z,99480.94
2023-04-01T06:49:00.073Z,99487.41
2023-04-01T06:51:53.263Z,99494.16
2023-04-01T06:54:43.189Z,99498.75
2023-04-01T06:57:35.238Z,99498.34
2023-04-01T07:00:15.069Z,99502.34
2023-04-01T07:02:54.639Z,99499.84
2023-04-01T07:05:26.153Z,99502.13
2023-04-01T07:07:59.917Z,99504.63
2023-04-01T07:10:38.123Z,99505.47
2023-04-01T07:13:29.409Z,99516.00
2023-04-01T07:16:10.992Z,99518.09
2023-04-01T07:18:48.173Z,99521.69
2023-04-01T07:21:25.509Z,99529.47
2023-04-01T07:23:58.976Z,99534.69
2023-04-01T07:26:37.344Z,99540.16
2023-04-01T07:29:13.083Z,99540.16
2023-04-01T07:32:12.068Z,99542.03
2023-04-01T07:34:49.470Z,99546.69
2023-04-01T07:37:25.511Z,99559.94
2023-04-01T07:40:01.745Z,99551.50
2023-04-01T07:42:51.414Z,99556.75
2023-04-01T07:45:27.692Z,99561.38
2023-04-01T07:48:20.426Z,99566.41
2023-04-01T07:50:57.592Z,99574.00
2023-04-01T07:53:35.108Z,99571.88
2023-04-01T07:56:12.237Z,99581.97
2023-04-01T07:58:56.128Z,99581.13
2023-04-01T08:01:53.504Z,99591.00
2023-04-01T08:04:37.827Z,99597.34
2023-04-01T08:07:12.204Z,99605.09
2023-04-01T08:09:54.663Z,99603.22
2023-04-01T08:12:56.177Z,99605.94
2023-04-01T08:15:51.677Z,99611.00
2023-04-01T08:18:56.938Z,99618.56
2023-04-01T08:21:31.160Z,99619.19
2023-04-01T08:24:06.669Z,99621.06
2023-04-01T08:26:42.261Z,99622.97
2023-04-01T08:29:16.164Z,99624.22
2023-04-01T08:31:52.255Z,99623.38
2023-04-01T08:34:25.371Z,99628.00
2023-04-01T08:37:02.165Z,99628.00
2023-04-01T08:39:34.386Z,99633.28
2023-04-01T08:42:41.595Z,99646.94
2023-04-01T08:45:47.220Z,99646.94
2023-04-01T08:48:39.811Z,99649.22
2023-04-01T08:52:01.212Z,99669.22
2023-04-01T08:54:48.209Z,99669.97
2023-04-01T08:57:37.914Z,99678.97
2023-04-01T09:00:34.414Z,99687.59
2023-04-01T09:03:39.255Z,99691.38
2023-04-01T09:06:26.557Z,99694.69
2023-04-01T09:09:27.393Z,99696.34
2023-04-01T09:12:14.052Z,99710.94
2023-04-01T09:15:03.829Z,99711.75
2023-04-01T09:18:17.809Z,99721.50
2023-04-01T09:21:00.668Z,99719.69
2023-04-01T09:24:01.208Z,99722.34
2023-04-01T09:27:00.125Z,99737.75
2023-04-01T09:29:54.919Z,99726.34
2023-04-01T09:32:52.354Z,99737.28
2023-04-01T09:35:31.827Z,99750.69
2023-04-01T09:38:15.026Z,99751.16
2023-04-01T09:40:52.546Z,99760.34
2023-04-01T09:43:48.467Z,99764.75
2023-04-01T09:46:28.449Z,99766.16
2023-04-01T09:49:41.857Z,99764.78
2023-04-01T09:52:26.401Z,99769.94
2023-04-01T09:55:30.286Z,99781.22
2023-04-01T09:58:43.877Z,99785.09
2023-04-01T10:02:09.361Z,99801.75
2023-04-01T10:05:02.469Z,99796.44
2023-04-01T10:08:13.012Z,99800.41
2023-04-01T10:11:13.867Z,99806.75
2023-04-01T10:14:26.849Z,99812.78
2023-04-01T10:17:41.702Z,99820.91
2023-04-01T10:20:27.841Z,99820.50
2023-04-01T10:23:14.074Z,99823.22
2023-04-01T10:26:10.615Z,99828.47
2023-04-01T10:29:14.416Z,99840.81
2023-04-01T10:32:22.539Z,99845.44
2023-04-01T10:35:16.394Z,99849.91
2023-04-01T10:38:10.787Z,99842.38
2023-04-01T10:40:55.579Z,99850.16
2023-04-01T10:44:13.751Z,99856.78
2023-04-01T10:47:21.432Z,99863.38
2023-04-01T10:50:13.138Z,99873.38
2023-04-01T10:53:10.127Z,99866.28
2023-04-01T10:56:30.150Z,99878.88
2023-04-01T11:00:09.505Z,99883.25
2023-04-01T11:03:44.644Z,99879.56
2023-04-01T11:07:19.868Z,99884.63
2023-04-01T11:10:23.049Z,99894.28
2023-04-01T11:13:31.591Z,99897.06
2023-04-01T11:16:29.556Z,99889.34
2023-04-01T11:19:32.406Z,99908.09
2023-04-01T11:22:31.597Z,99910.75
2023-04-01T11:25:38.354Z,99910.19
2023-04-01T11:28:57.985Z,99922.91
2023-04-01T11:31:50.182Z,99925.38
2023-04-01T11:34:53.107Z,99929.16
2023-04-01T11:37:34.775Z,99931.88
2023-04-01T11:40:34.818Z,99934.88
2023-04-01T11:43:36.656Z,99942.97
2023-04-01T11:46:35.791Z,99948.25
2023-04-01T11:49:16.929Z,99946.50
2023-04-01T11:52:11.143Z,99961.63
2023-04-01T11:54:57.844Z,99955.50
2023-04-01T11:57:50.640Z,99969.06
2023-04-01T12:00:40.022Z,99970.72
2023-04-01T12:03:24.173Z,99982.16
2023-04-01T12:05:54.791Z,99992.50
2023-04-01T12:08:33.620Z,99992.50
2023-04-01T12:11:16.576Z,100000.75
2023-04-01T12:13:55.800Z,100000.69
2023-04-01T12:16:48.708Z,100009.16
2023-04-01T12:19:26.822Z,100011.44
2023-04-01T12:22:11.207Z,100013.59
2023-04-01T12:24:49.886Z,100023.25
2023-04-01T12:27:41.966Z,100027.34
2023-04-01T12:30:41.970Z,100030.75
2023-04-01T12:33:31.645Z,100033.94
2023-04-01T12:36:13.261Z,100042.38
2023-04-01T12:38:50.527Z,100043.16
2023-04-01T12:41:32.319Z,100051.75
2023-04-01T12:44:20.286Z,100056.31
2023-04-01T12:47:20.582Z,100061.56
2023-04-01T12:50:03.331Z,100063.22
2023-04-01T12:52:47.341Z,100064.91
2023-04-01T12:55:32.873Z,100068.75
2023-04-01T12:58:50.805Z,100069.44
2023-04-01T13:01:32.237Z,100084.78
2023-04-01T13:04:34.386Z,100088.00
2023-04-01T13:07:18.972Z,100090.94
2023-04-01T13:09:57.911Z,100090.47
2023-04-01T13:12:38.673Z,100099.78
2023-04-01T13:15:25.683Z,100111.69
2023-04-01T13:18:06.557Z,100110.84
2023-04-01T13:20:46.910Z,100126.75
2023-04-01T13:23:41.809Z,100116.78
2023-04-01T13:26:20.070Z,100129.13
2023-04-01T13:28:56.062Z,100134.84
2023-04-01T13:31:53.690Z,100137.66
2023-04-01T13:34:35.594Z,100138.97
2023-04-01T13:37:22.804Z,100151.22
2023-04-01T13:40:16.606Z,100154.66
2023-04-01T13:42:47.447Z,100153.72
2023-04-01T13:45:20.304Z,100153.00
2023-04-01T13:48:11.046Z,100168.34
2023-04-01T13:50:57.131Z,100169.75
2023-04-01T13:53:58.685Z,100169.06
2023-04-01T13:56:35.916Z,100174.06
2023-04-01T13:59:19.174Z,100185.00
2023-04-01T14:01:52.247Z,100178.50
2023-04-01T14:04:45.017Z,100188.00
2023-04-01T14:07:26.190Z,100203.63
2023-04-01T14:10:08.994Z,100202.47
2023-04-01T14:12:46.468Z,100213.56
2023-04-01T14:15:27.905Z,100213.84
2023-04-01T14:18:18.926Z,100226.66
2023-04-01T14:20:53.939Z,100228.53
2023-04-01T14:24:03.706Z,100237.75
2023-04-01T14:27:03.332Z,100242.72
2023-04-01T14:29:43.682Z,100242.78
2023-04-01T14:32:18.361Z,100245.22
2023-04-01T14:34:56.871Z,100261.22
2023-04-01T14:38:00.653Z,100259.94
2023-04-01T14:40:35.928Z,100267.63
2023-04-01T14:43:19.537Z,100281.91
2023-04-01T14:46:16.626Z,100287.78
2023-04-01T14:48:54.998Z,100290.38
2023-04-01T14:51:30.654Z,100296.94
2023-04-01T14:54:06.625Z,100307.72
2023-04-01T14:56:40.059Z,100301.34
2023-04-01T14:59:12.398Z,100312.72
2023-04-01T15:01:49.397Z,100317.41
2023-04-01T15:04:39.597Z,100318.84
2023-04-01T15:07:37.569Z,100321.19
2023-04-01T15:10:20.548Z,100330.38
2023-04-01T15:12:59.732Z,100337.22
2023-04-01T15:15:41.564Z,100339.44
2023-04-01T15:18:19.936Z,100340.19
2023-04-01T15:21:06.349Z,100365.56
2023-04-01T15:23:47.316Z,100361.00
2023-04-01T15:26:29.079Z,100371.31
2023-04-01T15:29:15.802Z,100367.38
2023-04-01T15:31:49.026Z,100371.56
2023-04-01T15:34:31.681Z,100379.97
2023-04-01T15:37:05.032Z,100395.56
2023-04-01T15:39:50.463Z,100401.34
2023-04-01T15:42:44.598Z,100396.91
2023-04-01T15:45:26.100Z,100403.50
2023-04-01T15:48:03.383Z,100425.50
2023-04-01T15:50:48.870Z,100425.66
2023-04-01T15:53:39.868Z,100428.38
2023-04-01T15:56:26.462Z,100442.72
2023-04-01T15:59:08.620Z,100453.47
2023-04-01T16:01:45.975Z,100456.91
2023-04-01T16:04:30.875Z,100462.00
2023-04-01T16:07:11.896Z,100463.31
2023-04-01T16:09:54.301Z,100469.66
2023-04-01T16:12:38.582Z,100491.63
2023-04-01T16:15:23.708Z,100490.25
2023-04-01T16:18:30.084Z,100494.53
2023-04-01T16:21:03.071Z,100506.25
2023-04-01T16:23:39.934Z,100502.50
2023-04-01T16:26:11.869Z,100520.03
2023-04-01T16:28:51.214Z,100513.72
2023-04-01T16:31:31.762Z,100514.91
2023-04-01T16:34:06.089Z,100520.56
2023-04-01T16:36:43.960Z,100527.69
2023-04-01T16:39:32.144Z,100536.69
2023-04-01T16:42:21.625Z,100539.06
2023-04-01T16:44:57.169Z,100549.47
2023-04-01T16:47:32.372Z,100562.72
2023-04-01T16:50:08.772Z,100574.97
2023-04-01T16:52:49.851Z,100578.38
2023-04-01T16:55:21.717Z,100583.31
2023-04-01T16:57:53.490Z,100577.00
2023-04-01T17:00:28.295Z,100589.06
2023-04-01T17:03:06.357Z,100597.75
2023-04-01T17:05:44.291Z,100593.50
2023-04-01T17:08:24.089Z,100600.50
2023-04-01T17:10:59.192Z,100602.53
2023-04-01T17:13:37.646Z,100614.28
2023-04-01T17:16:22.885Z,100617.34
2023-04-01T17:19:01.190Z,100625.34
2023-04-01T17:21:38.018Z,100635.19
2023-04-01T17:24:16.792Z,100641.47
2023-04-01T17:26:52.042Z,100652.00
2023-04-01T17:29:27.731Z,100654.56
2023-04-01T17:32:09.019Z,100653.03
2023-04-01T17:34:58.339Z,100671.31
2023-04-01T17:37:39.322Z,100671.72
2023-04-01T17:40:27.114Z,100678.69
2023-04-01T17:43:04.387Z,100687.56
2023-04-01T17:45:39.478Z,100693.69
2023-04-01T17:48:20.644Z,100700.78
2023-04-01T17:51:02.812Z,100702.16
2023-04-01T17:53:41.267Z,100709.66
2023-04-01T17:56:21.295Z,100711.75
2023-04-01T17:59:00.939Z,100725.56
2023-04-01T18:01:41.903Z,100730.75
2023-04-01T18:04:19.932Z,100735.03
2023-04-01T18:07:01.783Z,100740.47
2023-04-01T18:09:42.389Z,100743.91
2023-04-01T18:12:20.184Z,100755.13
2023-04-01T18:15:07.408Z,100768.41
2023-04-01T18:17:48.698Z,100766.16
2023-04-01T18:20:31.083Z,100774.25
2023-04-01T18:23:03.605Z,100787.31
2023-04-01T18:25:37.877Z,100793.56
2023-04-01T18:28:21.978Z,100803.63
2023-04-01T18:30:58.862Z,100808.88
2023-04-01T18:33:34.160Z,100813.00
2023-04-01T18:36:16.328Z,100821.50
2023-04-01T18:38:52.373Z,100831.50
2023-04-01T18:41:27.872Z,100837.28
2023-04-01T18:44:05.658Z,100842.25
2023-04-01T18:46:41.676Z,100849.63
2023-04-01T18:49:17.461Z,100857.44
2023-04-01T18:51:50.616Z,100861.16
2023-04-01T18:54:25.421Z,100871.81
2023-04-01T18:57:01.998Z,100879.06
2023-04-01T18:59:36.726Z,100888.97
2023-04-01T19:02:21.105Z,100888.13
2023-04-01T19:04:55.386Z,100900.13
2023-04-01T19:07:43.103Z,100899.25
2023-04-01T19:10:33.197Z,100903.75
2023-04-01T19:13:16.786Z,100917.25
2023-04-01T19:15:54.803Z,100923.41
2023-04-01T19:18:47.774Z,100937.66
2023-04-01T19:21:20.604Z,100934.06
2023-04-01T19:24:19.284Z,100945.84
2023-04-01T19:26:51.477Z,100940.22
2023-04-01T19:29:28.754Z,100957.56
2023-04-01T19:32:09.743Z,100963.75
2023-04-01T19:34:51.856Z,100962.47
2023-04-01T19:37:30.564Z,100972.75
2023-04-01T19:40:12.996Z,100978.78
2023-04-01T19:42:48.938Z,100986.94
2023-04-01T19:45:30.575Z,100990.97
2023-04-01T19:48:06.678Z,100996.94
2023-04-01T19:50:42.241Z,101000.66
2023-04-01T19:53:21.165Z,101008.47
2023-04-01T19:55:55.431Z,101004.03
2023-04-01T19:58:32.958Z,101015.59
2023-04-01T20:01:02.870Z,101019.91
2023-04-01T20:03:39.627Z,101029.94
2023-04-01T20:06:17.874Z,101039.22
2023-04-01T20:08:57.253Z,101051.47
2023-04-01T20:11:37.712Z,101053.06
2023-04-01T20:14:16.280Z,101055.72
2023-04-01T20:17:01.802Z,101068.53
2023-04-01T20:19:37.319Z,101075.66
2023-04-01T20:22:26.342Z,101073.50
2023-04-01T20:24:56.831Z,101083.28
2023-04-01T20:27:28.819Z,101084.56
2023-04-01T20:30:09.636Z,101088.69
2023-04-01T20:33:03.184Z,101098.50
2023-04-01T20:35:45.595Z,101097.59
2023-04-01T20:38:33.490Z,101105.28
2023-04-01T20:41:06.982Z,101112.09
2023-04-01T20:43:54.897Z,101113.94
2023-04-01T20:46:29.391Z,101117.44
2023-04-01T20:49:17.123Z,101122.94
2023-04-01T20:51:50.750Z,101125.19
2023-04-01T20:54:28.783Z,101136.97
2023-04-01T20:57:07.472Z,101138.72
2023-04-01T20:59:58.036Z,101138.31
2023-04-01T21:02:43.813Z,101142.91
2023-04-01T21:05:47.274Z,101146.00
2023-04-01T21:08:27.346Z,101150.31
2023-04-01T21:11:03.705Z,101143.09
2023-04-01T21:13:47.189Z,101157.22
2023-04-01T21:16:29.527Z,101160.63
2023-04-01T21:19:13.776Z,101171.47
2023-04-01T21:22:35.609Z,101176.63
2023-04-01T21:25:22.635Z,101180.94
2023-04-01T21:28:17.365Z,101188.06
2023-04-01T21:31:07.275Z,101192.88
2023-04-01T21:33:52.297Z,101197.19
2023-04-01T21:36:32.346Z,101204.06
2023-04-01T21:39:25.067Z,101207.25
2023-04-01T21:42:06.677Z,101223.38
2023-04-01T21:44:54.004Z,101215.97
2023-04-01T21:48:07.010Z,101232.66
2023-04-01T21:50:53.369Z,101237.22
2023-04-01T21:54:06.237Z,101252.53
2023-04-01T21:57:19.129Z,101260.81
2023-04-01T22:00:19.879Z,101265.38
2023-04-01T22:03:41.651Z,101270.84
2023-04-01T22:06:23.377Z,101272.97
2023-04-01T22:09:14.813Z,101285.38
2023-04-01T22:11:55.650Z,101287.25
2023-04-01T22:14:30.092Z,101289.53
2023-04-01T22:17:04.754Z,101296.13
2023-04-01T22:19:42.348Z,101302.53
2023-04-01T22:22:20.018Z,101308.56
2023-04-01T22:25:02.108Z,101313.13
2023-04-01T22:27:35.554Z,101315.56
2023-04-01T22:30:08.691Z,101321.00
2023-04-01T22:32:44.423Z,101335.13
2023-04-01T22:35:29.318Z,101329.25
2023-04-01T22:38:06.904Z,101333.97
2023-04-01T22:40:41.419Z,101343.56
2023-04-01T22:43:13.637Z,101336.91
2023-04-01T22:46:06.925Z,101343.78
2023-04-01T22:48:42.452Z,101354.34
2023-04-01T22:51:19.611Z,101354.41
2023-04-01T22:54:03.433Z,101366.72
2023-04-01T22:56:34.895Z,101371.22
2023-04-01T22:59:10.599Z,101376.19
2023-04-01T23:01:46.942Z,101384.81
2023-04-01T23:04:19.289Z,101378.34
2023-04-01T23:06:54.056Z,101388.44
2023-04-01T23:09:27.867Z,101383.28
2023-04-01T23:12:00.429Z,101398.13
2023-04-01T23:14:41.799Z,101388.47
2023-04-01T23:17:36.816Z,101402.16
2023-04-01T23:20:19.884Z,101402.06
2023-04-01T23:22:58.191Z,101410.41
2023-04-01T23:25:39.420Z,101419.84
2023-04-01T23:28:36.294Z,101419.84
2023-04-01T23:31:04.673Z,101427.72
2023-04-01T23:33:33.695Z,101434.72
2023-04-01T23:36:07.070Z,101440.28
2023-04-01T23:38:37.662Z,101440.22
2023-04-01T23:41:08.370Z,101445.59
2023-04-01T23:43:39.917Z,101446.47
2023-04-01T23:46:09.491Z,101473.16
2023-04-01T23:48:40.176Z,101469.28
2023-04-01T23:51:16.036Z,101472.41
2023-04-01T23:53:46.979Z,101482.72
2023-04-01T23:56:18.790Z,101480.13
2023-04-01T23:58:50.058Z,101490.56
